createdAt,value
2018-05-02T00:00:52.899Z,72.9
2018-05-02T00:01:52.107Z,73.2
2018-05-02T00:02:51.200Z,72.8
2018-05-02T00:03:50.303Z,73.6
2018-05-02T00:04:49.133Z,74.2
2018-05-02T00:05:48.445Z,74.2
2018-05-02T00:06:47.755Z,74
2018-05-02T00:07:46.748Z,74.1
2018-05-02T00:08:46.069Z,73.9
2018-05-02T00:09:45.062Z,74.7
2018-05-02T00:10:44.284Z,74.4
2018-05-02T00:11:43.094Z,74
2018-05-02T00:12:42.520Z,74.8
2018-05-02T00:13:41.458Z,74.6
2018-05-02T00:14:40.673Z,75.3
2018-05-02T00:15:39.775Z,75.6
2018-05-02T00:16:39.101Z,75.7
2018-05-02T00:17:37.908Z,76.2
2018-05-02T00:18:37.223Z,76.5
2018-05-02T00:19:36.441Z,76.3
2018-05-02T00:20:35.359Z,75.8
2018-05-02T00:21:34.566Z,76.2
2018-05-02T00:22:33.665Z,75.9
2018-05-02T00:23:32.984Z,76.3
2018-05-02T00:24:31.923Z,76.5
2018-05-02T00:25:31.246Z,76.1
2018-05-02T00:27:29.444Z,76.1
2018-05-02T00:28:28.263Z,76.3
2018-05-02T00:29:27.702Z,76.5
2018-05-02T00:30:26.615Z,76.6
2018-05-02T00:31:25.947Z,76.4
2018-05-02T00:32:24.864Z,76.7
2018-05-02T00:33:24.293Z,77
2018-05-02T00:34:23.396Z,77.3
2018-05-02T00:35:22.205Z,77.2
2018-05-02T00:36:21.518Z,77.3
2018-05-02T00:37:20.327Z,77.6
2018-05-02T00:38:19.540Z,78
2018-05-02T00:39:18.747Z,78.3
2018-05-02T00:40:18.066Z,78.2
2018-05-02T00:41:16.994Z,77.8
2018-05-02T00:41:47.411Z,77.8
2018-05-02T00:42:17.923Z,78.8
2018-05-02T00:43:15.336Z,79.2
2018-05-02T00:44:14.167Z,78.8
2018-05-02T00:48:11.038Z,78.7
2018-05-02T00:49:09.754Z,78.5
2018-05-02T00:52:07.235Z,78.6
2018-05-02T00:53:06.551Z,79.3
2018-05-02T00:54:05.372Z,79.7
2018-05-02T00:55:04.596Z,79.3
2018-05-02T00:56:03.699Z,79.6
2018-05-02T00:58:01.684Z,79.3
2018-05-02T00:59:01.181Z,79.6
2018-05-02T01:00:00.394Z,79.1
2018-05-02T01:00:58.995Z,78.9
2018-05-02T01:01:58.310Z,78.8
2018-05-02T01:02:57.707Z,78.8
2018-05-02T01:04:55.794Z,78.9
2018-05-02T01:08:52.371Z,80.5
2018-05-02T01:09:51.084Z,81
2018-05-02T01:11:49.584Z,81.1
2018-05-02T01:12:48.907Z,80.8
2018-05-02T01:13:47.625Z,80.7
2018-05-02T01:14:47.055Z,80.5
2018-05-02T01:17:44.089Z,80.2
2018-05-02T01:18:43.303Z,81.1
2018-05-02T01:19:42.641Z,80.7
2018-05-02T01:20:41.498Z,81.8
2018-05-02T01:21:40.835Z,82.1
2018-05-02T01:22:11.357Z,82.1
2018-05-02T01:22:41.770Z,83.3
2018-05-02T01:23:12.396Z,83.3
2018-05-02T01:24:37.884Z,83.6
2018-05-02T01:25:36.980Z,83.1
2018-05-02T01:26:36.311Z,82.8
2018-05-02T01:27:35.055Z,82.6
2018-05-02T01:28:34.488Z,82.8
2018-05-02T01:30:32.685Z,83
2018-05-02T01:31:31.781Z,82.8
2018-05-02T01:32:30.710Z,83.1
2018-05-02T01:33:01.121Z,83.1
2018-05-02T01:33:31.538Z,83.5
2018-05-02T01:34:01.971Z,83.5
2018-05-02T01:35:27.873Z,83.8
2018-05-02T01:36:27.194Z,83.7
2018-05-02T01:37:26.307Z,83.5
2018-05-02T01:38:25.126Z,83.9
2018-05-02T01:39:24.565Z,83.9
2018-05-02T01:41:22.673Z,84.4
2018-05-02T01:42:21.785Z,84.5
2018-05-02T01:43:20.996Z,84.5
2018-05-02T01:45:19.297Z,84.6
2018-05-02T01:46:18.214Z,84.5
2018-05-02T01:47:17.418Z,85
2018-05-02T01:50:14.610Z,85
2018-05-02T01:51:13.924Z,85
2018-05-02T01:52:12.629Z,85.2
2018-05-02T01:53:11.954Z,85.5
2018-05-02T01:54:10.767Z,85.3
2018-05-02T01:55:10.198Z,85.2
2018-05-02T01:56:08.999Z,85.2
2018-05-02T01:57:08.421Z,84.9
2018-05-02T01:58:07.634Z,85.1
2018-05-02T01:59:06.448Z,85.3
2018-05-02T02:00:05.772Z,85.2
2018-05-02T02:01:04.608Z,85.9
2018-05-02T02:03:02.698Z,86
2018-05-02T02:03:33.112Z,86
2018-05-02T02:05:01.007Z,85.7
2018-05-02T02:06:00.350Z,86
2018-05-02T02:06:59.158Z,85.8
2018-05-02T02:07:58.482Z,86.2
2018-05-02T02:08:57.397Z,85.9
2018-05-02T02:09:56.713Z,85.5
2018-05-02T02:10:55.308Z,86.1
2018-05-02T02:11:54.411Z,85.8
2018-05-02T02:12:53.831Z,85.7
2018-05-02T02:13:52.824Z,85.8
2018-05-02T02:14:52.032Z,85.6
2018-05-02T02:15:51.267Z,85.8
2018-05-02T02:16:49.988Z,85.9
2018-05-02T02:17:49.433Z,85.9
2018-05-02T02:18:48.276Z,85.9
2018-05-02T02:19:47.512Z,85.7
2018-05-02T02:21:45.511Z,85.4
2018-05-02T02:22:44.736Z,85.3
2018-05-02T02:23:43.676Z,85.6
2018-05-02T02:24:42.911Z,86
2018-05-02T02:26:41.031Z,85.7
2018-05-02T02:27:40.372Z,85.9
2018-05-02T02:28:39.093Z,85.8
2018-05-02T02:29:38.322Z,85.9
2018-05-02T02:30:37.261Z,85.7
2018-05-02T02:31:36.617Z,86.1
2018-05-02T02:32:35.460Z,85.9
2018-05-02T02:34:34.087Z,86.1
2018-05-02T02:36:31.908Z,86
2018-05-02T02:37:31.145Z,86.5
2018-05-02T02:38:30.274Z,86.6
2018-05-02T02:39:29.504Z,86.4
2018-05-02T02:40:28.472Z,86.2
2018-05-02T02:41:27.418Z,86.2
2018-05-02T02:42:26.362Z,86
2018-05-02T02:43:25.722Z,86.3
2018-05-02T02:44:24.580Z,85.9
2018-05-02T02:45:23.916Z,86
2018-05-02T02:46:22.857Z,86
2018-05-02T02:47:22.192Z,86.5
2018-05-02T02:48:20.991Z,87
2018-05-02T02:49:20.453Z,87.2
2018-05-02T02:50:19.387Z,87
2018-05-02T02:51:18.333Z,87.4
2018-05-02T02:53:16.452Z,87.3
2018-05-02T02:54:15.782Z,87.1
2018-05-02T02:55:14.981Z,86.9
2018-05-02T02:56:13.831Z,87.1
2018-05-02T02:57:12.725Z,87.7
2018-05-02T02:57:43.387Z,87.7
2018-05-02T03:00:10.191Z,86.1
2018-05-02T03:02:08.423Z,87
2018-05-02T03:03:07.373Z,87.4
2018-05-02T03:04:06.710Z,86.9
2018-05-02T03:05:05.658Z,86.1
2018-05-02T03:06:04.603Z,85.5
2018-05-02T03:07:03.984Z,85.1
2018-05-02T03:07:34.410Z,85.1
2018-05-02T03:08:05.058Z,85.3
2018-05-02T03:08:35.607Z,85.3
2018-05-02T03:09:06.155Z,85.7
2018-05-02T03:09:36.718Z,85.7
2018-05-02T03:11:00.104Z,85.4
2018-05-02T03:12:58.103Z,86.7
2018-05-02T03:13:57.338Z,86.1
2018-05-02T03:14:56.670Z,85.7
2018-05-02T03:15:55.402Z,84.9
2018-05-02T03:16:54.749Z,84.6
2018-05-02T03:17:53.681Z,85.4
2018-05-02T03:18:53.021Z,85.5
2018-05-02T03:19:51.979Z,85.5
2018-05-02T03:20:51.094Z,85
2018-05-02T03:21:50.223Z,84.8
2018-05-02T03:22:49.049Z,85
2018-05-02T03:23:48.380Z,85.5
2018-05-02T03:24:47.628Z,85.7
2018-05-02T03:25:46.353Z,85.6
2018-05-02T03:27:44.574Z,85.4
2018-05-02T03:28:43.697Z,85.4
2018-05-02T03:29:43.037Z,85.8
2018-05-02T03:30:41.768Z,85.5
2018-05-02T03:31:41.108Z,85
2018-05-02T03:32:40.075Z,84.6
2018-05-02T03:33:39.298Z,84
2018-05-02T03:34:38.137Z,84.2
2018-05-02T03:35:37.359Z,84.2
2018-05-02T03:36:36.689Z,84.2
2018-05-02T03:38:34.902Z,84.1
2018-05-02T03:39:33.917Z,84
2018-05-02T03:40:32.639Z,84.8
2018-05-02T03:41:31.972Z,84.6
2018-05-02T03:42:31.298Z,84.6
2018-05-02T03:43:30.026Z,84.4
2018-05-02T03:44:29.359Z,84.4
2018-05-02T03:45:28.478Z,84.3
2018-05-02T03:46:27.414Z,84.4
2018-05-02T03:46:57.843Z,84.4
2018-05-02T03:48:25.865Z,84.4
2018-05-02T03:48:56.511Z,84.4
2018-05-02T03:51:22.792Z,84.3
2018-05-02T03:52:22.018Z,84.2
2018-05-02T03:55:19.513Z,84.6
2018-05-02T03:56:18.131Z,84.4
2018-05-02T03:57:17.468Z,84.4
2018-05-02T03:58:16.698Z,84.4
2018-05-02T03:58:47.340Z,84.4
2018-05-02T03:59:17.883Z,84.4
2018-05-02T03:59:48.534Z,84.4
2018-05-02T04:01:14.040Z,84.5
2018-05-02T04:02:12.981Z,84.4
2018-05-02T04:03:11.934Z,84.3
2018-05-02T04:04:11.151Z,84.2
2018-05-02T04:05:10.373Z,84.3
2018-05-02T04:06:09.107Z,84.2
2018-05-02T04:07:08.436Z,84.5
2018-05-02T04:08:07.670Z,84.7
2018-05-02T04:09:06.602Z,84.4
2018-05-02T04:11:04.817Z,84.5
2018-05-02T04:12:04.042Z,85.7
2018-05-02T04:13:03.270Z,85
2018-05-02T04:14:02.101Z,85.1
2018-05-02T04:15:01.253Z,85.3
2018-05-02T04:16:59.363Z,86
2018-05-02T04:17:58.705Z,86
2018-05-02T04:18:57.650Z,85.8
2018-05-02T04:19:56.762Z,85.6
2018-05-02T04:20:55.705Z,85.3
2018-05-02T04:21:55.043Z,85.5
2018-05-02T04:22:53.863Z,85.5
2018-05-02T04:23:53.066Z,85.7
2018-05-02T04:26:49.954Z,86.1
2018-05-02T04:27:49.285Z,86
2018-05-02T04:28:48.736Z,85.7
2018-05-02T04:29:47.568Z,85.7
2018-05-02T04:30:46.802Z,86
2018-05-02T04:31:45.414Z,86.3
2018-05-02T04:32:44.742Z,86.1
2018-05-02T04:34:42.926Z,85.6
2018-05-02T04:35:42.152Z,85.1
2018-05-02T04:36:41.377Z,85.7
2018-05-02T04:37:40.197Z,85.4
2018-05-02T04:38:39.420Z,85.2
2018-05-02T04:39:38.541Z,85.4
2018-05-02T04:41:36.758Z,85.8
2018-05-02T04:42:35.776Z,85.6
2018-05-02T04:44:33.892Z,85
2018-05-02T04:45:32.841Z,85.1
2018-05-02T04:46:32.169Z,85.3
2018-05-02T04:49:29.556Z,84.6
2018-05-02T04:50:28.500Z,84.4
2018-05-02T04:51:27.834Z,85.2
2018-05-02T04:52:26.558Z,84.9
2018-05-02T04:53:25.779Z,85.3
2018-05-02T04:54:25.018Z,85.6
2018-05-02T04:56:23.165Z,86.3
2018-05-02T04:57:21.997Z,85.9
2018-05-02T04:58:21.337Z,85.6
2018-05-02T04:59:20.280Z,85.6
2018-05-02T05:00:19.513Z,85.1
2018-05-02T05:01:18.343Z,85.1
2018-05-02T05:02:17.578Z,84.8
2018-05-02T05:04:15.676Z,85.4
2018-05-02T05:05:15.012Z,85
2018-05-02T05:07:13.018Z,84.7
2018-05-02T05:10:10.619Z,84.2
2018-05-02T05:11:09.738Z,84.5
2018-05-02T05:13:07.447Z,83.9
2018-05-02T05:16:05.060Z,84.2
2018-05-02T05:17:03.892Z,84.5
2018-05-02T05:20:01.609Z,83
2018-05-02T05:21:00.335Z,83.1
2018-05-02T05:21:59.667Z,83.2
2018-05-02T05:22:58.782Z,82.9
2018-05-02T05:23:29.557Z,82.9
2018-05-02T05:24:00.216Z,83.9
2018-05-02T05:24:30.754Z,83.9
2018-05-02T05:25:56.260Z,84.4
2018-05-02T05:26:54.982Z,84.3
2018-05-02T05:27:54.197Z,82.6
2018-05-02T05:28:53.317Z,82.2
2018-05-02T05:29:52.647Z,82
2018-05-02T05:30:51.663Z,81.9
2018-05-02T05:31:50.489Z,82.1
2018-05-02T05:32:49.822Z,81.5
2018-05-02T05:33:20.079Z,81.5
2018-05-02T05:33:50.630Z,81.4
2018-05-02T05:34:21.272Z,81.4
2018-05-02T05:35:47.282Z,81.8
2018-05-02T05:37:46.136Z,80.9
2018-05-02T05:40:42.507Z,82.6
2018-05-02T05:41:41.734Z,83
2018-05-02T05:42:40.741Z,81.7
2018-05-02T05:43:40.302Z,81.7
2018-05-02T05:44:38.914Z,81.8
2018-05-02T05:45:38.146Z,81.9
2018-05-02T05:46:37.073Z,82.1
2018-05-02T05:48:35.397Z,82.4
2018-05-02T05:50:33.503Z,82.9
2018-05-02T05:51:32.732Z,82.6
2018-05-02T05:52:31.670Z,82.5
2018-05-02T05:53:30.894Z,82.6
2018-05-02T05:54:30.543Z,82.6
2018-05-02T05:55:29.311Z,82.8
2018-05-02T05:56:28.537Z,82.6
2018-05-02T05:57:27.256Z,82.3
2018-05-02T05:59:25.763Z,81.8
2018-05-02T06:02:22.870Z,82.6
2018-05-02T06:03:21.983Z,81.9
2018-05-02T06:04:21.319Z,81.4
2018-05-02T06:04:51.854Z,81.4
2018-05-02T06:06:19.472Z,80.7
2018-05-02T06:07:18.691Z,81.7
2018-05-02T06:08:17.824Z,79.9
2018-05-02T06:09:16.546Z,80.8
2018-05-02T06:10:16.005Z,80.3
2018-05-02T06:11:15.236Z,79.7
2018-05-02T06:12:14.062Z,79.4
2018-05-02T06:13:13.005Z,80.3
2018-05-02T06:14:12.449Z,80.6
2018-05-02T06:15:11.393Z,79.9
2018-05-02T06:15:42.037Z,79.9
2018-05-02T06:16:12.296Z,77.8
2018-05-02T06:16:42.940Z,77.8
2018-05-02T06:17:13.207Z,77.7
2018-05-02T06:18:08.809Z,77.7
2018-05-02T06:19:07.761Z,77.4
2018-05-02T06:20:07.207Z,77.3
2018-05-02T06:23:04.307Z,76.7
2018-05-02T06:25:02.528Z,75.9
2018-05-02T06:26:01.553Z,75.5
2018-05-02T06:27:00.725Z,74.5
2018-05-02T06:28:00.055Z,74.7
2018-05-02T06:28:59.410Z,74.8
2018-05-02T06:30:57.601Z,74.2
2018-05-02T06:31:56.473Z,74.3
2018-05-02T06:34:53.838Z,75.1
2018-05-02T06:35:53.072Z,74.5
2018-05-02T06:36:52.409Z,74.3
2018-05-02T06:37:51.580Z,74.1
2018-05-02T06:38:50.510Z,74.1
2018-05-02T06:39:49.638Z,74.4
2018-05-02T06:41:47.853Z,74.8
2018-05-02T06:42:46.687Z,76.9
2018-05-02T06:43:45.916Z,75.1
2018-05-02T06:44:45.246Z,75.1
2018-05-02T06:45:44.367Z,74.9
2018-05-02T06:46:43.308Z,74.2
2018-05-02T06:47:42.649Z,74.3
2018-05-02T06:49:40.993Z,74.4
2018-05-02T06:50:39.829Z,74.8
2018-05-02T06:52:38.048Z,74.6
2018-05-02T06:53:37.057Z,75.9
2018-05-02T06:54:36.483Z,77.1
2018-05-02T06:55:35.532Z,76.5
2018-05-02T06:56:34.875Z,76.8
2018-05-02T06:57:33.717Z,76.4
2018-05-02T06:58:33.069Z,77
2018-05-02T07:00:31.288Z,76.7
2018-05-02T07:01:30.522Z,76.5
2018-05-02T07:02:29.750Z,76
2018-05-02T07:03:28.472Z,75.1
2018-05-02T07:04:27.704Z,75.1
2018-05-02T07:06:26.500Z,75.3
2018-05-02T07:07:25.331Z,75.8
2018-05-02T07:09:23.446Z,75.8
2018-05-02T07:11:22.170Z,75.6
2018-05-02T07:12:21.016Z,74.7
2018-05-02T07:13:20.463Z,75
2018-05-02T07:14:19.082Z,74.6
2018-05-02T07:15:18.532Z,74.7
2018-05-02T07:17:16.772Z,74.7
2018-05-02T07:18:16.115Z,72.9
2018-05-02T07:19:15.347Z,73.1
2018-05-02T07:20:14.285Z,72.1
2018-05-02T07:21:13.620Z,74.2
2018-05-02T07:23:11.733Z,71.3
2018-05-02T07:24:10.677Z,72.9
2018-05-02T07:25:09.899Z,73.9
2018-05-02T07:26:09.234Z,71.6
2018-05-02T07:27:08.567Z,72.1
2018-05-02T07:28:07.398Z,71.4
2018-05-02T07:29:06.630Z,71
2018-05-02T07:30:05.853Z,70.9
2018-05-02T07:31:04.866Z,71
2018-05-02T07:32:04.308Z,72.3
2018-05-02T07:33:03.407Z,71.1
2018-05-02T07:34:02.414Z,73
2018-05-02T07:36:00.922Z,72.8
2018-05-02T07:37:00.137Z,73.2
2018-05-02T07:37:59.369Z,72.9
2018-05-02T07:39:57.477Z,71.3
2018-05-02T07:41:55.579Z,72.1
2018-05-02T07:43:54.249Z,71.7
2018-05-02T07:44:53.196Z,72.8
2018-05-02T07:45:52.598Z,72.4
2018-05-02T07:47:50.704Z,71.2
2018-05-02T07:48:49.921Z,72.4
2018-05-02T07:49:49.249Z,71.9
2018-05-02T07:50:48.078Z,71.8
2018-05-02T07:51:47.199Z,73.8
2018-05-02T07:52:46.545Z,74.5
2018-05-02T07:53:45.679Z,73.2
2018-05-02T07:54:45.033Z,73.1
2018-05-02T07:55:15.701Z,73.1
2018-05-02T07:55:45.914Z,72.8
2018-05-02T07:56:43.301Z,73.2
2018-05-02T07:57:42.463Z,73.9
2018-05-02T07:59:40.571Z,73.5
2018-05-02T08:00:39.802Z,72.7
2018-05-02T08:01:39.139Z,76.4
2018-05-02T08:04:36.745Z,71.8
2018-05-02T08:05:35.571Z,71.6
2018-05-02T08:07:33.985Z,72.3
2018-05-02T08:08:33.098Z,71.8
2018-05-02T08:09:32.441Z,71.2
2018-05-02T08:10:31.668Z,71
2018-05-02T08:11:30.675Z,71.3
2018-05-02T08:12:29.901Z,72
2018-05-02T08:13:29.133Z,72.7
2018-05-02T08:14:28.578Z,71.6
2018-05-02T08:16:27.092Z,72.1
2018-05-02T08:17:25.651Z,71.4
2018-05-02T08:19:24.394Z,71.9
2018-05-02T08:20:23.622Z,72.7
2018-05-02T08:21:22.449Z,69.9
2018-05-02T08:22:21.568Z,70.3
2018-05-02T08:23:20.914Z,70.6
2018-05-02T08:26:18.423Z,72.9
2018-05-02T08:28:16.645Z,73
2018-05-02T08:29:15.985Z,71.7
2018-05-02T08:29:46.642Z,71.7
2018-05-02T08:30:17.179Z,73
2018-05-02T08:31:14.610Z,72.4
2018-05-02T08:32:13.449Z,70.4
2018-05-02T08:33:12.761Z,69.3
2018-05-02T08:34:11.882Z,71.3
2018-05-02T08:35:11.111Z,70.8
2018-05-02T08:37:09.596Z,71.2
2018-05-02T08:38:08.819Z,70.2
2018-05-02T08:39:07.935Z,70.5
2018-05-02T08:40:07.162Z,71.1
2018-05-02T08:41:06.010Z,71.1
2018-05-02T08:42:05.130Z,72.1
2018-05-02T08:43:04.534Z,72.3
2018-05-02T08:44:03.983Z,72.5
2018-05-02T08:45:02.850Z,71.1
2018-05-02T08:46:02.155Z,71.8
2018-05-02T08:47:01.502Z,71.7
2018-05-02T08:48:00.522Z,72
2018-05-02T08:49:58.887Z,73.4
2018-05-02T08:50:58.032Z,71.5
2018-05-02T08:51:56.971Z,72.1
2018-05-02T08:52:56.189Z,73.9
2018-05-02T08:53:55.413Z,71.9
2018-05-02T08:55:54.188Z,71.7
2018-05-02T08:56:53.206Z,71.7
2018-05-02T08:57:52.041Z,72.2
2018-05-02T08:58:51.394Z,71.1
2018-05-02T09:00:49.608Z,72
2018-05-02T09:01:49.093Z,72.3
2018-05-02T09:03:47.693Z,71.4
2018-05-02T09:04:46.375Z,71.8
2018-05-02T09:05:45.720Z,72.4
2018-05-02T09:06:45.062Z,71.4
2018-05-02T09:07:44.283Z,72.6
2018-05-02T09:08:43.218Z,72.2
2018-05-02T09:10:41.548Z,71.6
2018-05-02T09:11:40.880Z,71.4
2018-05-02T09:14:38.384Z,69.5
2018-05-02T09:15:37.724Z,69.8
2018-05-02T09:16:37.024Z,69.6
2018-05-02T09:17:35.859Z,70.9
2018-05-02T09:18:35.192Z,69.2
2018-05-02T09:19:34.314Z,69.6
2018-05-02T09:20:33.645Z,70.2
2018-05-02T09:21:32.973Z,66.7
2018-05-02T09:22:31.693Z,67.5
2018-05-02T09:23:30.916Z,67.6
2018-05-02T09:24:30.375Z,68.1
2018-05-02T09:25:29.211Z,68.2
2018-05-02T09:26:28.553Z,67.1
2018-05-02T09:27:27.892Z,66.4
2018-05-02T09:28:27.224Z,66.8
2018-05-02T09:29:26.057Z,66.1
2018-05-02T09:29:56.398Z,66.1
2018-05-02T09:31:24.428Z,71.2
2018-05-02T09:32:23.652Z,67.9
2018-05-02T09:33:23.004Z,67.5
2018-05-02T09:34:21.843Z,68.8
2018-05-02T09:35:21.284Z,68.3
2018-05-02T09:36:20.725Z,69.1
2018-05-02T09:37:19.548Z,68.8
2018-05-02T09:39:18.468Z,68.2
2018-05-02T09:39:48.699Z,68.2
2018-05-02T09:40:18.949Z,68.2
2018-05-02T09:40:49.490Z,68.2
2018-05-02T09:42:15.968Z,69.1
2018-05-02T09:43:14.909Z,67.4
2018-05-02T09:44:14.506Z,68.9
2018-05-02T09:45:13.096Z,68.6
2018-05-02T09:46:12.431Z,68.5
2018-05-02T09:47:11.762Z,67.5
2018-05-02T09:48:10.593Z,68.5
2018-05-02T09:49:10.206Z,67.9
2018-05-02T09:50:09.032Z,67.6
2018-05-02T09:52:07.733Z,67.9
2018-05-02T09:53:06.921Z,68.3
2018-05-02T09:54:05.638Z,68.5
2018-05-02T09:55:05.088Z,69
2018-05-02T09:56:04.427Z,69
2018-05-02T09:57:03.758Z,68.6
2018-05-02T09:59:01.876Z,69.7
2018-05-02T10:00:01.205Z,68.4
2018-05-02T10:01:00.546Z,68.5
2018-05-02T10:02:58.876Z,69.1
2018-05-02T10:03:58.101Z,70.7
2018-05-02T10:04:57.226Z,69.6
2018-05-02T10:05:56.349Z,69
2018-05-02T10:06:55.465Z,65.5
2018-05-02T10:07:54.913Z,66.8
2018-05-02T10:08:54.038Z,66.5
2018-05-02T10:09:52.869Z,67.9
2018-05-02T10:10:52.109Z,68
2018-05-02T10:16:47.557Z,67.7
2018-05-02T10:18:45.781Z,67.6
2018-05-02T10:19:45.002Z,66.7
2018-05-02T10:20:44.229Z,68.3
2018-05-02T10:21:43.566Z,68.3
2018-05-02T10:23:41.683Z,68.3
2018-05-02T10:24:40.905Z,67.4
2018-05-02T10:25:40.131Z,67.7
2018-05-02T10:26:39.583Z,68
2018-05-02T10:27:38.363Z,66.6
2018-05-02T10:28:37.930Z,66.8
2018-05-02T10:29:37.156Z,66.5
2018-05-02T10:31:35.369Z,64.9
2018-05-02T10:32:34.204Z,66.6
2018-05-02T10:33:33.537Z,67.4
2018-05-02T10:34:33.050Z,67.6
2018-05-02T10:36:31.334Z,67.2
2018-05-02T10:38:29.945Z,66
2018-05-02T10:39:28.886Z,67
2018-05-02T10:40:28.113Z,65.3
2018-05-02T10:41:27.455Z,65.2
2018-05-02T10:43:25.775Z,67.1
2018-05-02T10:44:24.886Z,68.2
2018-05-02T10:46:23.394Z,64.8
2018-05-02T10:47:22.339Z,66.8
2018-05-02T10:49:21.062Z,64.5
2018-05-02T10:50:20.409Z,65.2
2018-05-02T10:51:19.450Z,66.2
2018-05-02T10:52:18.570Z,64.2
2018-05-02T10:54:16.782Z,66.5
2018-05-02T10:55:16.118Z,65.8
2018-05-02T10:56:15.059Z,67
2018-05-02T10:57:14.277Z,65.8
2018-05-02T10:58:13.604Z,64.2
2018-05-02T10:59:12.822Z,64.8
2018-05-02T11:00:11.944Z,64.2
2018-05-02T11:02:10.562Z,65
2018-05-02T11:03:09.751Z,64.6
2018-05-02T11:05:07.972Z,66
2018-05-02T11:07:06.373Z,64.4
2018-05-02T11:07:37.031Z,64.4
2018-05-02T11:08:07.567Z,64.8
2018-05-02T11:09:05.014Z,63.9
2018-05-02T11:10:03.963Z,63.6
2018-05-02T11:11:03.413Z,64.2
2018-05-02T11:12:02.531Z,63.2
2018-05-02T11:13:01.865Z,63.4
2018-05-02T11:14:00.875Z,63
2018-05-02T11:15:00.103Z,64.2
2018-05-02T11:16:58.720Z,63.8
2018-05-02T11:17:29.048Z,63.8
2018-05-02T11:18:57.090Z,62.5
2018-05-02T11:19:56.427Z,63.2
2018-05-02T11:20:55.371Z,60.3
2018-05-02T11:21:54.820Z,61.4
2018-05-02T11:22:53.942Z,62.5
2018-05-02T11:23:53.075Z,61.9
2018-05-02T11:24:52.408Z,60.5
2018-05-02T11:25:51.844Z,61.3
2018-05-02T11:26:50.794Z,60.8
2018-05-02T11:27:49.916Z,60.9
2018-05-02T11:28:49.250Z,61.1
2018-05-02T11:30:47.964Z,60.6
2018-05-02T11:31:46.800Z,62.1
2018-05-02T11:32:46.129Z,60.6
2018-05-02T11:34:44.613Z,62.3
2018-05-02T11:35:43.894Z,60.1
2018-05-02T11:36:43.224Z,59.8
2018-05-02T11:37:42.566Z,60.7
2018-05-02T11:38:41.684Z,61.2
2018-05-02T11:40:39.858Z,59.6
2018-05-02T11:41:39.023Z,60.3
2018-05-02T11:42:38.760Z,57.9
2018-05-02T11:43:38.104Z,58.6
2018-05-02T11:44:37.327Z,58.9
2018-05-02T11:45:36.448Z,58.7
2018-05-02T11:46:35.781Z,60.4
2018-05-02T11:51:31.549Z,56.1
2018-05-02T11:52:31.287Z,56.8
2018-05-02T11:53:30.514Z,57
2018-05-02T11:54:29.845Z,56.7
2018-05-02T11:56:27.888Z,55.9
2018-05-02T11:57:28.716Z,58
2018-05-02T11:59:25.816Z,57.7
2018-05-02T12:00:25.256Z,58.2
2018-05-02T12:00:55.903Z,58.2
2018-05-02T12:01:26.050Z,53.9
2018-05-02T12:01:56.593Z,53.9
2018-05-02T12:03:23.103Z,56.9
2018-05-02T12:05:21.388Z,56
2018-05-02T12:06:20.725Z,55.5
2018-05-02T12:07:20.126Z,54.6
2018-05-02T12:08:19.340Z,54.3
2018-05-02T12:09:18.670Z,53.1
2018-05-02T12:10:18.022Z,54.6
2018-05-02T12:12:16.629Z,52
2018-05-02T12:13:15.979Z,52.1
2018-05-02T12:14:15.097Z,53.5
2018-05-02T12:16:13.812Z,52.9
2018-05-02T12:17:12.937Z,52.2
2018-05-02T12:18:12.456Z,52.8
2018-05-02T12:19:11.891Z,50.9
2018-05-02T12:23:08.796Z,51.2
2018-05-02T12:24:08.431Z,51.1
2018-05-02T12:25:07.650Z,53.9
2018-05-02T12:26:06.880Z,54.3
2018-05-02T12:27:06.503Z,53.6
2018-05-02T12:28:05.526Z,55.4
2018-05-02T12:29:04.762Z,54.2
2018-05-02T12:30:03.991Z,54.1
2018-05-02T12:31:03.218Z,51
2018-05-02T12:32:02.846Z,51
2018-05-02T12:33:02.068Z,49.3
2018-05-02T12:35:00.786Z,53.9
2018-05-02T12:36:00.127Z,54.2
2018-05-02T12:36:59.458Z,53.6
2018-05-02T12:37:58.894Z,55.1
2018-05-02T12:38:58.326Z,52.3
2018-05-02T12:39:57.550Z,52.8
2018-05-02T12:40:56.962Z,51.4
2018-05-02T12:41:56.064Z,54.2
2018-05-02T12:42:55.395Z,55.8
2018-05-02T12:43:54.807Z,51.8
2018-05-02T12:45:53.139Z,53.9
2018-05-02T12:46:52.587Z,51.7
2018-05-02T12:47:51.812Z,53.4
2018-05-02T12:48:51.257Z,53.2
2018-05-02T12:50:49.979Z,48.9
2018-05-02T12:51:49.109Z,52.8
2018-05-02T12:53:47.828Z,50.6
2018-05-02T12:54:47.560Z,51.7
2018-05-02T12:55:46.902Z,53.9
2018-05-02T12:56:45.836Z,50.3
2018-05-02T12:57:45.180Z,49
2018-05-02T12:59:43.911Z,51.5
2018-05-02T13:00:43.244Z,48.4
2018-05-02T13:01:42.589Z,48.3
2018-05-02T13:02:41.820Z,47.1
2018-05-02T13:03:41.659Z,48.8
2018-05-02T13:05:40.266Z,50.9
2018-05-02T13:06:39.604Z,49.3
2018-05-02T13:07:38.827Z,52.3
2018-05-02T13:08:38.268Z,48.1
2018-05-02T13:09:37.605Z,49.3
2018-05-02T13:10:36.948Z,49.4
2018-05-02T13:11:36.383Z,49.4
2018-05-02T13:12:35.500Z,49.2
2018-05-02T13:14:34.222Z,50
2018-05-02T13:15:33.762Z,49.9
2018-05-02T13:16:33.031Z,50.9
2018-05-02T13:17:32.267Z,50.3
2018-05-02T13:18:31.896Z,51.5
2018-05-02T13:19:31.225Z,49.1
2018-05-02T13:20:30.550Z,50.7
2018-05-02T13:21:29.902Z,52
2018-05-02T13:23:28.811Z,53.1
2018-05-02T13:24:27.988Z,54.5
2018-05-02T13:25:27.329Z,53.6
2018-05-02T13:26:26.776Z,52.9
2018-05-02T13:27:25.898Z,54.7
2018-05-02T13:28:25.526Z,51.8
2018-05-02T13:29:24.648Z,52.2
2018-05-02T13:31:23.258Z,52.9
2018-05-02T13:32:22.874Z,54.4
2018-05-02T13:33:22.399Z,55.4
2018-05-02T13:34:21.671Z,53.3
2018-05-02T13:35:20.899Z,53.5
2018-05-02T13:36:20.626Z,54
2018-05-02T13:37:19.848Z,54.7
2018-05-02T13:38:19.065Z,54.8
2018-05-02T13:39:18.406Z,55
2018-05-02T13:40:17.632Z,54.5
2018-05-02T13:41:17.374Z,55.1
2018-05-02T13:42:16.494Z,56.1
2018-05-02T13:44:15.317Z,57.2
2018-05-02T13:45:14.547Z,57.9
2018-05-02T13:46:13.771Z,58.3
2018-05-02T13:47:13.106Z,56.8
2018-05-02T13:48:12.834Z,56
2018-05-02T13:50:11.451Z,55.5
2018-05-02T13:51:10.471Z,55.6
2018-05-02T13:54:08.668Z,55.7
2018-05-02T13:55:08.048Z,56.7
2018-05-02T13:56:07.282Z,55.6
2018-05-02T13:57:06.680Z,56.1
2018-05-02T13:59:05.291Z,56.3
2018-05-02T14:00:04.696Z,56.8
2018-05-02T14:01:04.146Z,56.5
2018-05-02T14:02:03.374Z,59.3
2018-05-02T14:03:02.706Z,57.5
2018-05-02T14:06:00.710Z,58
2018-05-02T14:06:59.948Z,57.4
2018-05-02T14:07:59.371Z,57.4
2018-05-02T14:08:58.722Z,58
2018-05-02T14:09:58.346Z,59.3
2018-05-02T14:10:57.673Z,57.2
2018-05-02T14:11:57.013Z,57.7
2018-05-02T14:12:56.366Z,58
2018-05-02T14:13:55.585Z,57.6
2018-05-02T14:14:54.909Z,57
2018-05-02T14:15:54.312Z,57.2
2018-05-02T14:16:53.303Z,57.4
2018-05-02T14:17:52.638Z,57.9
2018-05-02T14:18:51.987Z,58.1
2018-05-02T14:19:51.324Z,58.3
2018-05-02T14:20:50.549Z,58.2
2018-05-02T14:21:49.892Z,58.3
2018-05-02T14:23:48.645Z,58.9
2018-05-02T14:24:48.058Z,58.3
2018-05-02T14:25:47.331Z,59.9
2018-05-02T14:27:45.933Z,58.5
2018-05-02T14:28:45.372Z,59
2018-05-02T14:29:44.595Z,58.2
2018-05-02T14:30:43.821Z,59.3
2018-05-02T14:31:43.168Z,58.6
2018-05-02T14:33:41.890Z,58.6
2018-05-02T14:34:41.227Z,59.3
2018-05-02T14:35:40.460Z,62.1
2018-05-02T14:36:39.800Z,61.4
2018-05-02T14:37:39.021Z,61.3
2018-05-02T14:39:38.148Z,60.6
2018-05-02T14:40:37.372Z,59.4
2018-05-02T14:41:36.376Z,59.4
2018-05-02T14:42:35.891Z,60.1
2018-05-02T14:44:34.623Z,58.7
2018-05-02T14:45:33.590Z,58.8
2018-05-02T14:46:32.921Z,58.7
2018-05-02T14:47:32.144Z,60.4
2018-05-02T14:48:31.882Z,60.1
2018-05-02T14:49:30.997Z,59.2
2018-05-02T14:50:01.536Z,59.2
2018-05-02T14:50:31.986Z,58.6
2018-05-02T14:51:02.628Z,58.6
2018-05-02T14:51:33.058Z,59.6
2018-05-02T14:52:03.719Z,59.6
2018-05-02T14:53:28.350Z,60.4
2018-05-02T14:54:27.750Z,59.2
2018-05-02T14:55:27.179Z,60.2
2018-05-02T14:56:26.399Z,59.2
2018-05-02T14:57:25.633Z,58.6
2018-05-02T14:58:24.961Z,59.4
2018-05-02T14:59:24.403Z,58.8
2018-05-02T15:00:23.647Z,58.9
2018-05-02T15:04:20.927Z,59.4
2018-05-02T15:05:20.152Z,60.1
2018-05-02T15:06:19.480Z,60.6
2018-05-02T15:07:18.915Z,59.7
2018-05-02T15:08:18.400Z,60.7
2018-05-02T15:09:17.233Z,60
2018-05-02T15:10:16.357Z,60.1
2018-05-02T15:12:15.088Z,62.2
2018-05-02T15:13:14.417Z,60.5
2018-05-02T15:14:13.766Z,60.8
2018-05-02T15:15:13.239Z,60.4
2018-05-02T15:16:12.459Z,59
2018-05-02T15:17:11.802Z,60.3
2018-05-02T15:18:11.248Z,60.2
2018-05-02T15:20:09.863Z,59
2018-05-02T15:21:09.190Z,58.7
2018-05-02T15:21:39.835Z,58.7
2018-05-02T15:22:10.266Z,59.4
2018-05-02T15:23:07.699Z,59.6
2018-05-02T15:24:07.033Z,59.2
2018-05-02T15:25:06.047Z,60.3
2018-05-02T15:26:05.381Z,61.4
2018-05-02T15:27:04.726Z,58.1
2018-05-02T15:28:04.072Z,58.1
2018-05-02T15:29:03.412Z,58.9
2018-05-02T15:30:02.423Z,57.9
2018-05-02T15:31:01.943Z,58.2
2018-05-02T15:32:01.288Z,58.2
2018-05-02T15:32:31.611Z,58.2